createdAt,value
2023-01-05T00:05:26.409Z,0
2023-01-05T00:11:49.397Z,0
2023-01-05T00:18:09.445Z,0
2023-01-05T00:24:32.349Z,0
2023-01-05T00:30:52.378Z,0
2023-01-05T00:37:15.462Z,0
2023-01-05T00:43:35.398Z,0
2023-01-05T00:49:58.409Z,0
2023-01-05T00:56:18.427Z,0
2023-01-05T01:02:41.341Z,0
2023-01-05T01:09:01.445Z,0
2023-01-05T01:15:24.383Z,0
2023-01-05T01:21:44.384Z,0
2023-01-05T01:28:08.986Z,0
2023-01-05T01:34:28.424Z,0
2023-01-05T01:40:51.342Z,0
2023-01-05T01:47:11.392Z,0
2023-01-05T01:53:34.457Z,0
2023-01-05T01:59:54.468Z,0
2023-01-05T02:06:17.438Z,0
2023-01-05T02:12:37.475Z,0
2023-01-05T02:19:00.419Z,0
2023-01-05T02:25:20.429Z,0
2023-01-05T02:31:43.419Z,0
2023-01-05T02:38:03.438Z,0
2023-01-05T02:44:26.393Z,0
2023-01-05T02:50:46.429Z,0
2023-01-05T02:57:09.371Z,0
2023-01-05T03:03:29.505Z,0
2023-01-05T03:09:52.375Z,0
2023-01-05T03:16:12.422Z,0
2023-01-05T03:22:35.380Z,0
2023-01-05T03:28:55.433Z,0
2023-01-05T03:35:18.346Z,0
2023-01-05T03:41:38.383Z,0
2023-01-05T03:48:01.460Z,0
2023-01-05T03:54:21.431Z,0
2023-01-05T04:00:44.392Z,0
2023-01-05T04:07:04.541Z,0
2023-01-05T04:30:29.359Z,0
2023-01-05T04:36:52.335Z,0
2023-01-05T04:43:12.351Z,0
2023-01-05T04:49:35.372Z,0
2023-01-05T04:55:55.391Z,0
2023-01-05T05:02:18.509Z,0
2023-01-05T05:08:38.449Z,0
2023-01-05T05:15:01.426Z,0
2023-01-05T05:21:21.358Z,0
2023-01-05T05:27:44.406Z,0
2023-01-05T05:34:04.351Z,0
2023-01-05T05:40:27.409Z,0
2023-01-05T05:46:47.424Z,0
2023-01-05T05:53:10.340Z,0
2023-01-05T05:59:30.386Z,0
2023-01-05T06:05:53.423Z,0
2023-01-05T06:12:13.385Z,0
2023-01-05T06:18:36.357Z,0
2023-01-05T06:24:56.348Z,0
2023-01-05T06:31:19.441Z,0
2023-01-05T06:37:39.362Z,0
2023-01-05T06:44:02.450Z,0
2023-01-05T06:50:22.346Z,0
2023-01-05T06:56:45.351Z,0
2023-01-05T07:03:05.450Z,1
2023-01-05T07:09:28.404Z,3
2023-01-05T07:15:48.436Z,5
2023-01-05T07:22:11.417Z,10
2023-01-05T07:28:31.412Z,17
2023-01-05T07:34:55.582Z,34
2023-01-05T07:41:14.352Z,60
2023-01-05T07:47:37.475Z,85
2023-01-05T07:53:57.469Z,78
2023-01-05T08:00:20.403Z,163
2023-01-05T08:06:40.423Z,247
2023-01-05T08:13:03.378Z,289
2023-01-05T08:19:23.500Z,379
2023-01-05T08:25:46.413Z,370
2023-01-05T08:32:06.386Z,469
2023-01-05T08:38:29.468Z,478
2023-01-05T08:44:49.385Z,451
2023-01-05T08:51:12.395Z,546
2023-01-05T08:57:32.595Z,754
2023-01-05T09:03:55.584Z,716
2023-01-05T09:10:15.427Z,694
2023-01-05T09:22:58.403Z,670
2023-01-05T09:46:04.465Z,547
2023-01-05T09:52:27.916Z,729
2023-01-05T09:58:47.354Z,959
2023-01-05T10:05:10.602Z,1223
2023-01-05T10:11:30.366Z,1456
2023-01-05T10:17:54.581Z,1741
2023-01-05T10:24:14.572Z,1534
2023-01-05T10:30:37.415Z,1386
2023-01-05T10:37:12.836Z,1520
2023-01-05T10:43:20.510Z,1009
2023-01-05T10:49:40.406Z,919
2023-01-05T10:56:03.437Z,2040
2023-01-05T11:02:23.750Z,1650
2023-01-05T11:08:46.395Z,1780
2023-01-05T11:15:06.360Z,1993
2023-01-05T11:21:29.618Z,2241
2023-01-05T11:27:56.352Z,2090
2023-01-05T11:34:12.380Z,1987
2023-01-05T11:40:32.543Z,2034
2023-01-05T11:46:55.484Z,1733
2023-01-05T11:53:15.387Z,1572
2023-01-05T11:59:38.404Z,1980
2023-01-05T12:05:58.706Z,1768
2023-01-05T12:12:21.376Z,1852
2023-01-05T12:18:41.463Z,4360
2023-01-05T12:25:04.400Z,2316
2023-01-05T12:37:47.599Z,3685
2023-01-05T12:44:07.360Z,1618
2023-01-05T12:50:30.449Z,1412
2023-01-05T12:56:50.531Z,1462
2023-01-05T13:03:13.388Z,1739
2023-01-05T13:09:33.416Z,1493
2023-01-05T13:15:56.485Z,983
2023-01-05T13:22:16.375Z,1267
2023-01-05T13:28:39.383Z,1213
2023-01-05T13:34:59.473Z,1280
2023-01-05T13:41:22.387Z,1281
2023-01-05T13:47:45.746Z,1233
2023-01-05T13:54:05.595Z,1051
2023-01-05T14:00:25.446Z,900
2023-01-05T14:06:48.336Z,646
2023-01-05T14:13:08.556Z,443
2023-01-05T14:19:31.388Z,429
2023-01-05T14:25:51.371Z,506
2023-01-05T14:32:14.473Z,503
2023-01-05T14:38:34.369Z,544
2023-01-05T14:44:57.413Z,503
2023-01-05T15:01:23.392Z,303
2023-01-05T15:07:46.019Z,234
2023-01-05T15:14:09.477Z,197
2023-01-05T15:20:29.510Z,160
2023-01-05T15:26:52.370Z,112
2023-01-05T15:33:12.591Z,91
2023-01-05T15:39:35.487Z,52
2023-01-05T15:45:55.491Z,29
2023-01-05T15:52:18.378Z,9
2023-01-05T15:58:38.491Z,3
2023-01-05T16:05:01.509Z,2
2023-01-05T16:11:21.397Z,1
2023-01-05T16:17:44.490Z,0
2023-01-05T16:24:04.323Z,0
2023-01-05T16:30:27.529Z,0
2023-01-05T16:36:47.486Z,0
2023-01-05T16:43:10.365Z,0
2023-01-05T16:49:30.382Z,0
2023-01-05T16:55:55.159Z,0
2023-01-05T17:02:13.479Z,0
2023-01-05T17:08:36.362Z,0
2023-01-05T17:14:56.478Z,0
2023-01-05T17:21:19.379Z,0
2023-01-05T17:27:39.332Z,0
2023-01-05T17:34:02.519Z,0
2023-01-05T17:40:22.405Z,0
2023-01-05T17:46:45.367Z,0
2023-01-05T17:53:05.532Z,0
2023-01-05T17:59:28.581Z,0
2023-01-05T18:05:48.394Z,0
2023-01-05T18:12:11.524Z,0
2023-01-05T18:18:31.349Z,0
2023-01-05T18:24:54.416Z,0
2023-01-05T18:31:14.447Z,0
2023-01-05T18:37:37.400Z,0
2023-01-05T18:43:57.409Z,0
2023-01-05T18:50:20.465Z,0
2023-01-05T18:56:40.415Z,0
2023-01-05T19:03:03.408Z,0
2023-01-05T19:09:23.464Z,0
2023-01-05T19:15:46.400Z,0
2023-01-05T19:22:06.352Z,0
2023-01-05T19:28:29.490Z,0
2023-01-05T19:34:49.333Z,0
2023-01-05T19:41:12.388Z,0
2023-01-05T19:47:32.463Z,0
2023-01-05T19:53:55.350Z,0
2023-01-05T20:17:20.358Z,0
2023-01-05T20:23:40.372Z,0
2023-01-05T20:30:03.351Z,0
2023-01-05T20:36:23.475Z,0
2023-01-05T20:42:46.336Z,0
2023-01-05T20:49:06.387Z,0
2023-01-05T20:55:29.485Z,0
2023-01-05T21:01:49.393Z,0
2023-01-05T21:08:12.407Z,0
2023-01-05T21:14:32.472Z,0
2023-01-05T21:20:55.405Z,0
2023-01-05T21:27:15.325Z,0
2023-01-05T21:33:38.493Z,0
2023-01-05T21:39:58.383Z,0
2023-01-05T21:46:21.348Z,0
2023-01-05T21:52:41.545Z,0
2023-01-05T21:59:04.352Z,0
2023-01-05T22:05:24.338Z,0
2023-01-05T22:11:47.499Z,0
2023-01-05T22:18:07.381Z,0
2023-01-05T22:24:30.370Z,0
2023-01-05T22:30:50.448Z,0
2023-01-05T22:37:13.348Z,0
2023-01-05T22:43:33.378Z,0
2023-01-05T22:49:56.463Z,0
2023-01-05T22:56:16.358Z,0
2023-01-05T23:20:33.497Z,0
2023-01-05T23:26:53.315Z,0
2023-01-05T23:33:16.381Z,0
2023-01-05T23:39:36.456Z,0
2023-01-05T23:45:59.466Z,0
2023-01-05T23:52:19.311Z,0
2023-01-05T23:58:42.508Z,0
